sensor_id;sensor_type;location;lat;lon;timestamp;temperature;humidity
65478;SHT31;53678;39.642;22.430;2022-12-16T00:01:38;10.76;95.94
65478;SHT31;53678;39.642;22.430;2022-12-16T00:04:03;10.78;95.36
65478;SHT31;53678;39.642;22.430;2022-12-16T00:06:32;10.79;95.21
65478;SHT31;53678;39.642;22.430;2022-12-16T00:08:59;10.78;95.01
65478;SHT31;53678;39.642;22.430;2022-12-16T00:11:26;10.78;94.59
65478;SHT31;53678;39.642;22.430;2022-12-16T00:13:52;10.71;94.61
65478;SHT31;53678;39.642;22.430;2022-12-16T00:16:20;10.78;94.76
65478;SHT31;53678;39.642;22.430;2022-12-16T00:18:46;10.76;94.93
65478;SHT31;53678;39.642;22.430;2022-12-16T00:21:13;10.69;95.12
65478;SHT31;53678;39.642;22.430;2022-12-16T00:23:39;10.72;95.36
65478;SHT31;53678;39.642;22.430;2022-12-16T00:26:09;10.72;95.47
65478;SHT31;53678;39.642;22.430;2022-12-16T00:28:36;10.78;95.46
65478;SHT31;53678;39.642;22.430;2022-12-16T00:31:02;10.69;95.16
65478;SHT31;53678;39.642;22.430;2022-12-16T00:33:28;10.65;95.35
65478;SHT31;53678;39.642;22.430;2022-12-16T00:35:54;10.67;95.64
65478;SHT31;53678;39.642;22.430;2022-12-16T00:38:22;10.69;95.67
65478;SHT31;53678;39.642;22.430;2022-12-16T00:40:48;10.78;95.71
65478;SHT31;53678;39.642;22.430;2022-12-16T00:43:14;10.85;95.68
65478;SHT31;53678;39.642;22.430;2022-12-16T00:45:40;10.92;95.50
65478;SHT31;53678;39.642;22.430;2022-12-16T00:48:07;10.91;95.24
65478;SHT31;53678;39.642;22.430;2022-12-16T00:50:34;10.89;95.11
65478;SHT31;53678;39.642;22.430;2022-12-16T00:53:00;10.88;95.21
65478;SHT31;53678;39.642;22.430;2022-12-16T00:55:26;10.89;95.16
65478;SHT31;53678;39.642;22.430;2022-12-16T00:57:52;10.96;95.11
65478;SHT31;53678;39.642;22.430;2022-12-16T01:00:18;10.65;94.59
65478;SHT31;53678;39.642;22.430;2022-12-16T01:02:47;10.61;95.46
65478;SHT31;53678;39.642;22.430;2022-12-16T01:05:15;10.57;95.85
65478;SHT31;53678;39.642;22.430;2022-12-16T01:07:42;10.65;95.62
65478;SHT31;53678;39.642;22.430;2022-12-16T01:10:09;10.51;95.62
65478;SHT31;53678;39.642;22.430;2022-12-16T01:12:35;10.51;95.51
65478;SHT31;53678;39.642;22.430;2022-12-16T01:15:03;10.51;95.74
65478;SHT31;53678;39.642;22.430;2022-12-16T01:17:30;10.45;95.67
65478;SHT31;53678;39.642;22.430;2022-12-16T01:19:55;10.24;96.16
65478;SHT31;53678;39.642;22.430;2022-12-16T01:22:22;10.29;96.35
65478;SHT31;53678;39.642;22.430;2022-12-16T01:24:48;10.34;96.51
65478;SHT31;53678;39.642;22.430;2022-12-16T01:27:14;10.42;96.32
65478;SHT31;53678;39.642;22.430;2022-12-16T01:29:40;10.41;96.59
65478;SHT31;53678;39.642;22.430;2022-12-16T01:32:08;10.48;96.38
65478;SHT31;53678;39.642;22.430;2022-12-16T01:34:36;10.54;95.97
65478;SHT31;53678;39.642;22.430;2022-12-16T01:37:02;10.58;96.00
65478;SHT31;53678;39.642;22.430;2022-12-16T01:39:28;10.57;95.66
65478;SHT31;53678;39.642;22.430;2022-12-16T01:41:55;10.60;95.87
65478;SHT31;53678;39.642;22.430;2022-12-16T01:44:25;10.65;95.83
65478;SHT31;53678;39.642;22.430;2022-12-16T01:46:59;10.72;95.83
65478;SHT31;53678;39.642;22.430;2022-12-16T01:49:37;10.69;95.56
65478;SHT31;53678;39.642;22.430;2022-12-16T01:52:11;10.79;95.63
65478;SHT31;53678;39.642;22.430;2022-12-16T01:54:49;10.79;95.81
65478;SHT31;53678;39.642;22.430;2022-12-16T01:57:21;10.83;95.60
65478;SHT31;53678;39.642;22.430;2022-12-16T01:59:50;10.95;95.71
65478;SHT31;53678;39.642;22.430;2022-12-16T02:02:17;10.82;95.15
65478;SHT31;53678;39.642;22.430;2022-12-16T02:04:44;10.73;95.24
65478;SHT31;53678;39.642;22.430;2022-12-16T02:07:28;10.79;95.31
65478;SHT31;53678;39.642;22.430;2022-12-16T02:09:54;10.86;95.14
65478;SHT31;53678;39.642;22.430;2022-12-16T02:12:58;10.85;95.14
65478;SHT31;53678;39.642;22.430;2022-12-16T02:15:49;10.95;95.62
65478;SHT31;53678;39.642;22.430;2022-12-16T02:18:36;11.02;95.88
65478;SHT31;53678;39.642;22.430;2022-12-16T02:24:08;11.12;95.34
65478;SHT31;53678;39.642;22.430;2022-12-16T02:29:49;11.05;95.87
65478;SHT31;53678;39.642;22.430;2022-12-16T02:35:09;10.99;96.28
65478;SHT31;53678;39.642;22.430;2022-12-16T02:37:48;10.86;96.30
65478;SHT31;53678;39.642;22.430;2022-12-16T02:40:27;10.89;96.70
65478;SHT31;53678;39.642;22.430;2022-12-16T02:43:03;10.88;96.83
65478;SHT31;53678;39.642;22.430;2022-12-16T02:45:33;10.95;97.00
65478;SHT31;53678;39.642;22.430;2022-12-16T02:47:59;10.99;96.97
65478;SHT31;53678;39.642;22.430;2022-12-16T02:50:39;11.02;96.81
65478;SHT31;53678;39.642;22.430;2022-12-16T02:53:06;11.09;96.83
65478;SHT31;53678;39.642;22.430;2022-12-16T02:55:54;11.08;96.74
65478;SHT31;53678;39.642;22.430;2022-12-16T03:04:08;11.19;96.61
65478;SHT31;53678;39.642;22.430;2022-12-16T03:06:37;11.10;96.34
65478;SHT31;53678;39.642;22.430;2022-12-16T03:09:08;11.13;96.42
65478;SHT31;53678;39.642;22.430;2022-12-16T03:11:37;11.15;96.23
65478;SHT31;53678;39.642;22.430;2022-12-16T03:14:05;11.12;96.40
65478;SHT31;53678;39.642;22.430;2022-12-16T03:16:33;11.15;96.42
65478;SHT31;53678;39.642;22.430;2022-12-16T03:19:05;11.02;96.00
65478;SHT31;53678;39.642;22.430;2022-12-16T03:21:47;10.93;96.40
65478;SHT31;53678;39.642;22.430;2022-12-16T03:24:15;10.81;96.50
65478;SHT31;53678;39.642;22.430;2022-12-16T03:35:43;10.93;96.41
65478;SHT31;53678;39.642;22.430;2022-12-16T03:38:13;10.93;96.22
65478;SHT31;53678;39.642;22.430;2022-12-16T03:40:41;10.86;95.95
65478;SHT31;53678;39.642;22.430;2022-12-16T03:43:09;10.78;95.94
65478;SHT31;53678;39.642;22.430;2022-12-16T03:45:40;10.82;96.56
65478;SHT31;53678;39.642;22.430;2022-12-16T03:48:09;10.61;96.74
65478;SHT31;53678;39.642;22.430;2022-12-16T03:50:36;10.60;97.10
65478;SHT31;53678;39.642;22.430;2022-12-16T03:53:03;10.54;97.44
65478;SHT31;53678;39.642;22.430;2022-12-16T03:55:30;10.47;97.38
65478;SHT31;53678;39.642;22.430;2022-12-16T03:57:55;10.50;97.35
65478;SHT31;53678;39.642;22.430;2022-12-16T04:00:22;10.50;97.22
65478;SHT31;53678;39.642;22.430;2022-12-16T04:02:48;10.50;96.87
65478;SHT31;53678;39.642;22.430;2022-12-16T04:05:14;10.54;96.58
65478;SHT31;53678;39.642;22.430;2022-12-16T04:07:40;10.34;96.58
65478;SHT31;53678;39.642;22.430;2022-12-16T04:10:07;10.34;97.14
65478;SHT31;53678;39.642;22.430;2022-12-16T04:12:33;10.42;97.36
65478;SHT31;53678;39.642;22.430;2022-12-16T04:15:17;10.51;97.30
65478;SHT31;53678;39.642;22.430;2022-12-16T04:18:03;10.54;97.10
65478;SHT31;53678;39.642;22.430;2022-12-16T04:20:52;10.54;97.24
65478;SHT31;53678;39.642;22.430;2022-12-16T04:23:45;10.60;97.07
65478;SHT31;53678;39.642;22.430;2022-12-16T04:26:30;10.64;97.14
65478;SHT31;53678;39.642;22.430;2022-12-16T04:29:16;10.57;96.90
65478;SHT31;53678;39.642;22.430;2022-12-16T04:31:42;10.20;96.26
65478;SHT31;53678;39.642;22.430;2022-12-16T04:34:08;9.96;96.89
65478;SHT31;53678;39.642;22.430;2022-12-16T04:36:53;9.96;97.03
65478;SHT31;53678;39.642;22.430;2022-12-16T04:39:38;10.03;96.86
65478;SHT31;53678;39.642;22.430;2022-12-16T04:42:22;10.07;97.03
65478;SHT31;53678;39.642;22.430;2022-12-16T04:45:07;9.97;96.60
65478;SHT31;53678;39.642;22.430;2022-12-16T04:47:52;9.97;96.37
65478;SHT31;53678;39.642;22.430;2022-12-16T04:50:37;10.02;96.49
65478;SHT31;53678;39.642;22.430;2022-12-16T04:53:23;10.00;96.39
65478;SHT31;53678;39.642;22.430;2022-12-16T04:56:08;10.16;97.09
65478;SHT31;53678;39.642;22.430;2022-12-16T04:58:52;10.27;96.68
65478;SHT31;53678;39.642;22.430;2022-12-16T05:01:37;10.40;96.72
65478;SHT31;53678;39.642;22.430;2022-12-16T05:04:21;10.51;96.74
65478;SHT31;53678;39.642;22.430;2022-12-16T05:07:06;10.67;96.60
65478;SHT31;53678;39.642;22.430;2022-12-16T05:09:50;10.75;96.38
65478;SHT31;53678;39.642;22.430;2022-12-16T05:12:34;10.78;96.40
65478;SHT31;53678;39.642;22.430;2022-12-16T05:15:20;10.83;96.52
65478;SHT31;53678;39.642;22.430;2022-12-16T05:18:12;10.83;96.65
65478;SHT31;53678;39.642;22.430;2022-12-16T05:21:00;10.89;96.24
65478;SHT31;53678;39.642;22.430;2022-12-16T05:23:45;10.86;96.69
65478;SHT31;53678;39.642;22.430;2022-12-16T05:26:30;10.91;96.40
65478;SHT31;53678;39.642;22.430;2022-12-16T05:29:14;10.86;96.32
65478;SHT31;53678;39.642;22.430;2022-12-16T05:31:59;10.95;96.14
65478;SHT31;53678;39.642;22.430;2022-12-16T05:34:43;10.92;96.02
65478;SHT31;53678;39.642;22.430;2022-12-16T05:37:27;10.83;95.85
65478;SHT31;53678;39.642;22.430;2022-12-16T05:40:12;10.79;96.03
65478;SHT31;53678;39.642;22.430;2022-12-16T05:42:56;10.62;95.98
65478;SHT31;53678;39.642;22.430;2022-12-16T05:45:42;10.65;96.48
65478;SHT31;53678;39.642;22.430;2022-12-16T05:48:26;10.57;96.48
65478;SHT31;53678;39.642;22.430;2022-12-16T05:51:11;10.71;96.90
65478;SHT31;53678;39.642;22.430;2022-12-16T05:53:55;10.68;96.77
65478;SHT31;53678;39.642;22.430;2022-12-16T05:56:40;10.73;96.93
65478;SHT31;53678;39.642;22.430;2022-12-16T05:59:24;10.83;96.92
65478;SHT31;53678;39.642;22.430;2022-12-16T06:02:08;10.75;96.45
65478;SHT31;53678;39.642;22.430;2022-12-16T06:04:52;10.81;97.02
65478;SHT31;53678;39.642;22.430;2022-12-16T06:07:42;10.92;96.54
65478;SHT31;53678;39.642;22.430;2022-12-16T06:10:33;10.92;96.06
65478;SHT31;53678;39.642;22.430;2022-12-16T06:13:18;10.88;95.93
65478;SHT31;53678;39.642;22.430;2022-12-16T06:16:02;10.92;95.62
65478;SHT31;53678;39.642;22.430;2022-12-16T06:18:47;10.98;95.73
65478;SHT31;53678;39.642;22.430;2022-12-16T06:21:31;11.06;95.71
65478;SHT31;53678;39.642;22.430;2022-12-16T06:24:16;10.91;95.67
65478;SHT31;53678;39.642;22.430;2022-12-16T06:27:00;10.76;96.02
65478;SHT31;53678;39.642;22.430;2022-12-16T06:29:44;10.86;95.74
65478;SHT31;53678;39.642;22.430;2022-12-16T06:32:29;10.88;95.92
65478;SHT31;53678;39.642;22.430;2022-12-16T06:35:13;10.89;96.10
65478;SHT31;53678;39.642;22.430;2022-12-16T06:37:58;10.92;95.70
65478;SHT31;53678;39.642;22.430;2022-12-16T06:40:42;11.20;95.92
65478;SHT31;53678;39.642;22.430;2022-12-16T06:43:26;11.12;95.48
65478;SHT31;53678;39.642;22.430;2022-12-16T06:46:11;11.19;95.70
65478;SHT31;53678;39.642;22.430;2022-12-16T06:48:55;11.18;95.61
65478;SHT31;53678;39.642;22.430;2022-12-16T06:51:40;11.26;95.77
65478;SHT31;53678;39.642;22.430;2022-12-16T06:54:24;11.16;95.39
65478;SHT31;53678;39.642;22.430;2022-12-16T06:57:09;11.29;96.17
65478;SHT31;53678;39.642;22.430;2022-12-16T06:59:54;11.27;95.59
65478;SHT31;53678;39.642;22.430;2022-12-16T07:02:38;11.39;95.71
65478;SHT31;53678;39.642;22.430;2022-12-16T07:05:24;11.44;95.70
65478;SHT31;53678;39.642;22.430;2022-12-16T07:08:08;11.67;95.02
65478;SHT31;53678;39.642;22.430;2022-12-16T07:10:52;11.70;94.85
65478;SHT31;53678;39.642;22.430;2022-12-16T07:13:37;11.61;94.54
65478;SHT31;53678;39.642;22.430;2022-12-16T07:16:21;11.74;94.80
65478;SHT31;53678;39.642;22.430;2022-12-16T07:19:07;11.74;94.94
65478;SHT31;53678;39.642;22.430;2022-12-16T07:21:51;11.73;94.81
65478;SHT31;53678;39.642;22.430;2022-12-16T07:24:35;11.84;94.79
65478;SHT31;53678;39.642;22.430;2022-12-16T07:27:36;11.84;94.95
65478;SHT31;53678;39.642;22.430;2022-12-16T07:30:21;12.02;95.05
65478;SHT31;53678;39.642;22.430;2022-12-16T07:33:05;12.25;93.60
65478;SHT31;53678;39.642;22.430;2022-12-16T07:35:49;12.19;93.46
65478;SHT31;53678;39.642;22.430;2022-12-16T07:38:35;12.21;93.57
65478;SHT31;53678;39.642;22.430;2022-12-16T07:41:29;12.19;93.44
65478;SHT31;53678;39.642;22.430;2022-12-16T07:44:18;12.09;94.31
65478;SHT31;53678;39.642;22.430;2022-12-16T07:47:03;12.14;94.40
65478;SHT31;53678;39.642;22.430;2022-12-16T07:49:47;12.11;94.23
65478;SHT31;53678;39.642;22.430;2022-12-16T07:52:32;12.14;95.00
65478;SHT31;53678;39.642;22.430;2022-12-16T07:55:16;12.01;94.82
65478;SHT31;53678;39.642;22.430;2022-12-16T07:58:00;11.92;94.94
65478;SHT31;53678;39.642;22.430;2022-12-16T08:00:45;11.99;95.78
65478;SHT31;53678;39.642;22.430;2022-12-16T08:03:29;11.71;95.91
65478;SHT31;53678;39.642;22.430;2022-12-16T08:06:13;11.88;95.51
65478;SHT31;53678;39.642;22.430;2022-12-16T08:08:58;11.95;95.45
65478;SHT31;53678;39.642;22.430;2022-12-16T08:11:42;12.06;94.88
65478;SHT31;53678;39.642;22.430;2022-12-16T08:14:28;12.06;94.96
65478;SHT31;53678;39.642;22.430;2022-12-16T08:17:12;12.05;95.04
65478;SHT31;53678;39.642;22.430;2022-12-16T08:19:57;12.02;95.21
65478;SHT31;53678;39.642;22.430;2022-12-16T08:22:41;11.99;96.10
65478;SHT31;53678;39.642;22.430;2022-12-16T08:25:27;11.92;95.61
65478;SHT31;53678;39.642;22.430;2022-12-16T08:28:11;11.82;96.65
65478;SHT31;53678;39.642;22.430;2022-12-16T08:30:55;12.06;95.67
65478;SHT31;53678;39.642;22.430;2022-12-16T08:33:39;12.19;95.48
65478;SHT31;53678;39.642;22.430;2022-12-16T08:36:24;12.37;94.96
65478;SHT31;53678;39.642;22.430;2022-12-16T08:39:08;12.52;94.03
65478;SHT31;53678;39.642;22.430;2022-12-16T08:41:52;12.60;93.96
65478;SHT31;53678;39.642;22.430;2022-12-16T08:44:37;12.67;93.99
65478;SHT31;53678;39.642;22.430;2022-12-16T08:47:21;12.80;93.27
65478;SHT31;53678;39.642;22.430;2022-12-16T08:50:06;12.70;93.14
65478;SHT31;53678;39.642;22.430;2022-12-16T08:52:51;12.80;93.51
65478;SHT31;53678;39.642;22.430;2022-12-16T08:55:41;12.83;92.66
65478;SHT31;53678;39.642;22.430;2022-12-16T08:58:26;12.93;92.64
65478;SHT31;53678;39.642;22.430;2022-12-16T09:01:12;13.03;92.25
65478;SHT31;53678;39.642;22.430;2022-12-16T09:03:57;12.60;94.16
65478;SHT31;53678;39.642;22.430;2022-12-16T09:06:41;12.97;93.56
65478;SHT31;53678;39.642;22.430;2022-12-16T09:09:26;13.07;93.40
65478;SHT31;53678;39.642;22.430;2022-12-16T09:12:10;12.67;93.53
65478;SHT31;53678;39.642;22.430;2022-12-16T09:14:54;12.36;95.46
65478;SHT31;53678;39.642;22.430;2022-12-16T09:17:43;12.87;94.19
65478;SHT31;53678;39.642;22.430;2022-12-16T09:20:30;13.07;93.87
65478;SHT31;53678;39.642;22.430;2022-12-16T09:23:15;13.35;92.94
65478;SHT31;53678;39.642;22.430;2022-12-16T09:25:59;13.07;92.48
65478;SHT31;53678;39.642;22.430;2022-12-16T09:28:44;13.10;93.69
65478;SHT31;53678;39.642;22.430;2022-12-16T09:31:28;13.19;93.12
65478;SHT31;53678;39.642;22.430;2022-12-16T09:34:14;13.16;93.66
65478;SHT31;53678;39.642;22.430;2022-12-16T09:36:58;13.51;91.86
65478;SHT31;53678;39.642;22.430;2022-12-16T09:39:43;13.43;91.43
65478;SHT31;53678;39.642;22.430;2022-12-16T09:42:29;13.22;92.54
65478;SHT31;53678;39.642;22.430;2022-12-16T09:45:55;13.08;94.45
65478;SHT31;53678;39.642;22.430;2022-12-16T09:51:32;13.97;90.93
65478;SHT31;53678;39.642;22.430;2022-12-16T09:54:19;14.25;90.37
65478;SHT31;53678;39.642;22.430;2022-12-16T09:57:07;14.31;90.50
65478;SHT31;53678;39.642;22.430;2022-12-16T09:59:56;14.25;88.80
65478;SHT31;53678;39.642;22.430;2022-12-16T10:02:46;14.07;89.84
65478;SHT31;53678;39.642;22.430;2022-12-16T10:06:06;14.24;90.00
65478;SHT31;53678;39.642;22.430;2022-12-16T10:12:00;14.04;90.36
65478;SHT31;53678;39.642;22.430;2022-12-16T10:14:55;13.87;91.84
65478;SHT31;53678;39.642;22.430;2022-12-16T10:17:44;13.79;92.01
65478;SHT31;53678;39.642;22.430;2022-12-16T10:20:39;13.84;91.86
65478;SHT31;53678;39.642;22.430;2022-12-16T10:23:33;13.84;92.25
65478;SHT31;53678;39.642;22.430;2022-12-16T10:26:59;13.83;91.84
65478;SHT31;53678;39.642;22.430;2022-12-16T10:29:47;13.83;92.27
65478;SHT31;53678;39.642;22.430;2022-12-16T10:32:37;13.91;92.55
65478;SHT31;53678;39.642;22.430;2022-12-16T10:38:31;13.83;92.56
65478;SHT31;53678;39.642;22.430;2022-12-16T10:41:23;13.91;92.58
65478;SHT31;53678;39.642;22.430;2022-12-16T10:47:23;13.91;92.12
65478;SHT31;53678;39.642;22.430;2022-12-16T10:50:12;13.83;93.02
65478;SHT31;53678;39.642;22.430;2022-12-16T10:52:59;13.82;92.60
65478;SHT31;53678;39.642;22.430;2022-12-16T10:58:56;14.14;92.67
65478;SHT31;53678;39.642;22.430;2022-12-16T11:05:29;14.13;92.45
65478;SHT31;53678;39.642;22.430;2022-12-16T11:08:29;14.24;91.55
65478;SHT31;53678;39.642;22.430;2022-12-16T11:14:23;14.10;92.17
65478;SHT31;53678;39.642;22.430;2022-12-16T11:17:33;13.97;92.54
65478;SHT31;53678;39.642;22.430;2022-12-16T11:20:24;13.99;92.68
65478;SHT31;53678;39.642;22.430;2022-12-16T11:23:19;13.96;93.01
65478;SHT31;53678;39.642;22.430;2022-12-16T11:31:49;14.03;92.29
65478;SHT31;53678;39.642;22.430;2022-12-16T11:34:36;13.96;92.63
65478;SHT31;53678;39.642;22.430;2022-12-16T11:37:21;14.03;92.62
65478;SHT31;53678;39.642;22.430;2022-12-16T11:40:13;14.21;92.76
65478;SHT31;53678;39.642;22.430;2022-12-16T11:43:00;14.16;92.26
65478;SHT31;53678;39.642;22.430;2022-12-16T11:45:47;14.16;92.47
65478;SHT31;53678;39.642;22.430;2022-12-16T11:48:41;14.18;92.86
65478;SHT31;53678;39.642;22.430;2022-12-16T11:51:29;13.65;94.10
65478;SHT31;53678;39.642;22.430;2022-12-16T11:54:27;14.01;93.21
65478;SHT31;53678;39.642;22.430;2022-12-16T11:57:27;14.20;92.04
65478;SHT31;53678;39.642;22.430;2022-12-16T12:00:18;14.37;91.96
65478;SHT31;53678;39.642;22.430;2022-12-16T12:03:11;14.37;91.53
65478;SHT31;53678;39.642;22.430;2022-12-16T12:06:11;14.52;91.72
65478;SHT31;53678;39.642;22.430;2022-12-16T12:11:55;14.78;90.66
65478;SHT31;53678;39.642;22.430;2022-12-16T12:14:52;14.78;90.46
65478;SHT31;53678;39.642;22.430;2022-12-16T12:21:16;14.92;89.81
65478;SHT31;53678;39.642;22.430;2022-12-16T12:24:17;14.79;90.12
65478;SHT31;53678;39.642;22.430;2022-12-16T12:27:28;14.76;90.71
65478;SHT31;53678;39.642;22.430;2022-12-16T12:30:17;14.62;91.23
65478;SHT31;53678;39.642;22.430;2022-12-16T12:36:27;14.67;90.91
65478;SHT31;53678;39.642;22.430;2022-12-16T12:39:34;14.76;91.27
65478;SHT31;53678;39.642;22.430;2022-12-16T12:48:23;14.96;91.15
65478;SHT31;53678;39.642;22.430;2022-12-16T12:51:33;15.11;90.50
65478;SHT31;53678;39.642;22.430;2022-12-16T12:57:39;15.02;91.24
65478;SHT31;53678;39.642;22.430;2022-12-16T13:00:28;14.88;91.47
65478;SHT31;53678;39.642;22.430;2022-12-16T13:06:20;14.92;91.68
65478;SHT31;53678;39.642;22.430;2022-12-16T13:09:36;14.78;92.05
65478;SHT31;53678;39.642;22.430;2022-12-16T13:12:28;14.76;92.70
65478;SHT31;53678;39.642;22.430;2022-12-16T13:15:37;14.86;91.45
65478;SHT31;53678;39.642;22.430;2022-12-16T13:18:30;14.80;92.05
65478;SHT31;53678;39.642;22.430;2022-12-16T13:24:39;14.49;93.44
65478;SHT31;53678;39.642;22.430;2022-12-16T13:27:49;14.34;94.59
65478;SHT31;53678;39.642;22.430;2022-12-16T13:30:35;14.51;93.47
65478;SHT31;53678;39.642;22.430;2022-12-16T13:33:26;14.55;93.62
65478;SHT31;53678;39.642;22.430;2022-12-16T13:36:14;14.67;93.13
65478;SHT31;53678;39.642;22.430;2022-12-16T13:39:25;14.59;93.26
65478;SHT31;53678;39.642;22.430;2022-12-16T13:45:39;14.54;93.71
65478;SHT31;53678;39.642;22.430;2022-12-16T13:54:28;14.44;94.06
65478;SHT31;53678;39.642;22.430;2022-12-16T13:57:17;14.48;94.39
65478;SHT31;53678;39.642;22.430;2022-12-16T14:00:04;14.48;94.19
65478;SHT31;53678;39.642;22.430;2022-12-16T14:02:57;14.52;94.20
65478;SHT31;53678;39.642;22.430;2022-12-16T14:05:42;14.48;94.34
65478;SHT31;53678;39.642;22.430;2022-12-16T14:08:31;14.51;94.02
65478;SHT31;53678;39.642;22.430;2022-12-16T14:11:41;14.55;94.27
65478;SHT31;53678;39.642;22.430;2022-12-16T14:14:43;14.48;94.08
65478;SHT31;53678;39.642;22.430;2022-12-16T14:17:40;14.41;94.36
65478;SHT31;53678;39.642;22.430;2022-12-16T14:20:31;14.37;94.78
65478;SHT31;53678;39.642;22.430;2022-12-16T14:23:44;14.51;94.38
65478;SHT31;53678;39.642;22.430;2022-12-16T14:26:34;14.49;94.32
65478;SHT31;53678;39.642;22.430;2022-12-16T14:29:27;14.40;94.42
65478;SHT31;53678;39.642;22.430;2022-12-16T14:32:27;14.35;94.41
65478;SHT31;53678;39.642;22.430;2022-12-16T14:35:22;14.30;94.94
65478;SHT31;53678;39.642;22.430;2022-12-16T14:38:34;14.28;95.08
65478;SHT31;53678;39.642;22.430;2022-12-16T14:41:32;14.24;95.02
65478;SHT31;53678;39.642;22.430;2022-12-16T14:44:21;14.20;95.50
65478;SHT31;53678;39.642;22.430;2022-12-16T14:47:15;14.24;95.18
65478;SHT31;53678;39.642;22.430;2022-12-16T14:50:00;14.18;95.26
65478;SHT31;53678;39.642;22.430;2022-12-16T14:52:45;14.10;95.58
65478;SHT31;53678;39.642;22.430;2022-12-16T14:55:32;14.04;95.80
65478;SHT31;53678;39.642;22.430;2022-12-16T14:58:20;14.14;96.08
65478;SHT31;53678;39.642;22.430;2022-12-16T15:01:15;14.10;95.58
65478;SHT31;53678;39.642;22.430;2022-12-16T15:04:03;14.03;95.40
65478;SHT31;53678;39.642;22.430;2022-12-16T15:06:52;13.97;95.87
65478;SHT31;53678;39.642;22.430;2022-12-16T15:09:41;13.97;95.95
65478;SHT31;53678;39.642;22.430;2022-12-16T15:12:32;13.96;95.89
65478;SHT31;53678;39.642;22.430;2022-12-16T15:15:29;13.91;95.86
65478;SHT31;53678;39.642;22.430;2022-12-16T15:18:18;13.96;96.07
65478;SHT31;53678;39.642;22.430;2022-12-16T15:21:05;13.97;96.14
65478;SHT31;53678;39.642;22.430;2022-12-16T15:23:50;14.06;95.94
65478;SHT31;53678;39.642;22.430;2022-12-16T15:26:36;13.90;95.94
65478;SHT31;53678;39.642;22.430;2022-12-16T15:29:38;13.79;96.26
65478;SHT31;53678;39.642;22.430;2022-12-16T15:38:30;13.91;96.18
65478;SHT31;53678;39.642;22.430;2022-12-16T15:41:33;13.82;95.92
65478;SHT31;53678;39.642;22.430;2022-12-16T15:44:22;13.80;96.27
65478;SHT31;53678;39.642;22.430;2022-12-16T15:47:25;13.82;96.16
65478;SHT31;53678;39.642;22.430;2022-12-16T15:50:14;13.84;96.27
65478;SHT31;53678;39.642;22.430;2022-12-16T15:53:37;13.82;96.18
65478;SHT31;53678;39.642;22.430;2022-12-16T15:56:26;13.91;96.39
65478;SHT31;53678;39.642;22.430;2022-12-16T15:59:21;13.94;95.81
65478;SHT31;53678;39.642;22.430;2022-12-16T16:02:26;13.87;95.87
65478;SHT31;53678;39.642;22.430;2022-12-16T16:05:21;13.83;95.99
65478;SHT31;53678;39.642;22.430;2022-12-16T16:08:06;13.70;96.38
65478;SHT31;53678;39.642;22.430;2022-12-16T16:11:09;13.72;96.45
65478;SHT31;53678;39.642;22.430;2022-12-16T16:13:53;13.69;96.33
65478;SHT31;53678;39.642;22.430;2022-12-16T16:16:38;13.67;96.39
65478;SHT31;53678;39.642;22.430;2022-12-16T16:19:24;13.66;96.34
65478;SHT31;53678;39.642;22.430;2022-12-16T16:22:14;13.63;96.38
65478;SHT31;53678;39.642;22.430;2022-12-16T16:24:58;13.72;96.49
65478;SHT31;53678;39.642;22.430;2022-12-16T16:27:43;13.80;95.80
65478;SHT31;53678;39.642;22.430;2022-12-16T16:30:28;13.62;96.40
65478;SHT31;53678;39.642;22.430;2022-12-16T16:33:13;13.51;96.52
65478;SHT31;53678;39.642;22.430;2022-12-16T16:35:57;13.49;96.27
65478;SHT31;53678;39.642;22.430;2022-12-16T16:38:41;13.48;96.35
65478;SHT31;53678;39.642;22.430;2022-12-16T16:41:26;13.43;96.58
65478;SHT31;53678;39.642;22.430;2022-12-16T16:44:10;13.42;96.59
65478;SHT31;53678;39.642;22.430;2022-12-16T16:47:02;13.42;96.40
65478;SHT31;53678;39.642;22.430;2022-12-16T16:49:47;13.34;96.56
65478;SHT31;53678;39.642;22.430;2022-12-16T16:52:31;13.22;96.69
65478;SHT31;53678;39.642;22.430;2022-12-16T16:55:19;13.25;96.62
65478;SHT31;53678;39.642;22.430;2022-12-16T16:58:09;13.26;96.70
65478;SHT31;53678;39.642;22.430;2022-12-16T17:00:55;13.31;96.82
65478;SHT31;53678;39.642;22.430;2022-12-16T17:03:39;13.41;96.64
65478;SHT31;53678;39.642;22.430;2022-12-16T17:06:25;13.29;96.88
65478;SHT31;53678;39.642;22.430;2022-12-16T17:09:09;13.35;97.13
65478;SHT31;53678;39.642;22.430;2022-12-16T17:11:54;13.29;97.20
65478;SHT31;53678;39.642;22.430;2022-12-16T17:14:38;13.35;97.02
65478;SHT31;53678;39.642;22.430;2022-12-16T17:17:23;13.28;96.95
65478;SHT31;53678;39.642;22.430;2022-12-16T17:20:13;13.25;97.09
65478;SHT31;53678;39.642;22.430;2022-12-16T17:22:57;13.19;97.23
65478;SHT31;53678;39.642;22.430;2022-12-16T17:25:42;13.18;97.39
65478;SHT31;53678;39.642;22.430;2022-12-16T17:28:26;13.21;97.43
65478;SHT31;53678;39.642;22.430;2022-12-16T17:31:10;13.25;97.46
65478;SHT31;53678;39.642;22.430;2022-12-16T17:33:54;13.39;97.32
65478;SHT31;53678;39.642;22.430;2022-12-16T17:36:40;13.29;97.19
65478;SHT31;53678;39.642;22.430;2022-12-16T17:39:24;13.19;97.21
65478;SHT31;53678;39.642;22.430;2022-12-16T17:42:08;13.14;97.17
65478;SHT31;53678;39.642;22.430;2022-12-16T17:44:52;13.12;97.06
65478;SHT31;53678;39.642;22.430;2022-12-16T17:47:40;13.11;97.06
65478;SHT31;53678;39.642;22.430;2022-12-16T17:50:24;13.05;97.26
65478;SHT31;53678;39.642;22.430;2022-12-16T17:53:08;13.07;97.41
65478;SHT31;53678;39.642;22.430;2022-12-16T17:55:52;13.04;97.47
65478;SHT31;53678;39.642;22.430;2022-12-16T17:58:37;13.11;97.38
65478;SHT31;53678;39.642;22.430;2022-12-16T18:01:22;13.03;97.40
65478;SHT31;53678;39.642;22.430;2022-12-16T18:04:07;13.08;97.46
65478;SHT31;53678;39.642;22.430;2022-12-16T18:06:52;12.95;97.40
65478;SHT31;53678;39.642;22.430;2022-12-16T18:09:36;13.01;97.41
65478;SHT31;53678;39.642;22.430;2022-12-16T18:12:21;12.98;97.27
65478;SHT31;53678;39.642;22.430;2022-12-16T18:15:08;12.94;97.29
65478;SHT31;53678;39.642;22.430;2022-12-16T18:17:53;12.95;97.40
65478;SHT31;53678;39.642;22.430;2022-12-16T18:20:37;13.04;97.60
65478;SHT31;53678;39.642;22.430;2022-12-16T18:23:22;12.95;97.07
65478;SHT31;53678;39.642;22.430;2022-12-16T18:26:08;13.01;97.08
65478;SHT31;53678;39.642;22.430;2022-12-16T18:28:53;12.94;96.87
65478;SHT31;53678;39.642;22.430;2022-12-16T18:31:40;12.91;97.09